Afton, New York
Current Conditions -  °F | °C
As of 1:53 AM on Tuesday 21 Oct 2014 (Local Time) from KBGM Reporting Station
Overcast Overcast  
Wind Chill: 47°   Ceiling: 7000
Heat Index: 49°   Visibility: 10mi
Dew Point: 39°   Wind: 5mph
Humidity: 69%   Direction: 180°S
Pressure: 29.86"   Gusts: NA
Location:  42.23°N, 75.53°W
Report Text: KBGM 210553Z AUTO 18004KT 10SM FEW050 BKN070 OVC090 09/04 A2986 RMK AO2 SLP113 T00940039 10100 20094 58011
Loading
Personal Weather Stations






























Interactive Weather Map
Tropical Storm Tracking
New forecast layout! Learn more

10-Day Weather Forecast

Advertisements
Track Severe Weather on mobile